createdAt,value
2022-10-18T00:02:13.111Z,11.88
2022-10-18T00:05:15.349Z,11.80
2022-10-18T00:08:17.983Z,12.40
2022-10-18T00:11:20.170Z,12.30
2022-10-18T00:14:22.981Z,11.02
2022-10-18T00:17:25.702Z,11.27
2022-10-18T00:20:27.918Z,11.73
2022-10-18T00:23:30.792Z,10.90
2022-10-18T00:26:33.108Z,10.30
2022-10-18T00:29:35.370Z,12.02
2022-10-18T00:32:41.225Z,10.30
2022-10-18T00:35:43.426Z,10.37
2022-10-18T00:38:46.162Z,10.38
2022-10-18T00:41:48.798Z,10.43
2022-10-18T00:44:50.977Z,10.05
2022-10-18T00:47:55.828Z,9.73
2022-10-18T00:50:58.000Z,9.83
2022-10-18T00:54:00.495Z,9.80
2022-10-18T00:57:03.105Z,9.10
2022-10-18T01:00:09.831Z,9.30
2022-10-18T01:03:12.076Z,9.60
2022-10-18T01:06:14.337Z,9.90
2022-10-18T01:09:20.879Z,9.98
2022-10-18T01:12:26.269Z,9.45
2022-10-18T01:15:34.852Z,10.18
2022-10-18T01:18:55.008Z,10.50
2022-10-18T01:22:23.899Z,10.43
2022-10-18T01:25:32.233Z,10.38
2022-10-18T01:28:43.698Z,10.60
2022-10-18T01:32:12.340Z,11.20
2022-10-18T01:35:18.081Z,10.70
2022-10-18T01:38:20.445Z,10.90
2022-10-18T01:41:24.346Z,11.18
2022-10-18T01:44:27.228Z,11.02
2022-10-18T01:47:29.816Z,9.77
2022-10-18T01:50:33.749Z,10.20
2022-10-18T01:53:36.244Z,10.00
2022-10-18T01:56:55.118Z,11.13
2022-10-18T02:00:03.849Z,10.02
2022-10-18T02:03:13.546Z,10.05
2022-10-18T02:06:15.676Z,10.15
2022-10-18T02:09:24.924Z,10.63
2022-10-18T02:12:28.896Z,10.10
2022-10-18T02:15:33.521Z,10.63
2022-10-18T02:18:48.301Z,9.70
2022-10-18T02:21:51.766Z,9.90
2022-10-18T02:24:56.407Z,10.57
2022-10-18T02:27:58.791Z,10.93
2022-10-18T02:31:06.762Z,10.35
2022-10-18T02:34:26.095Z,10.30
2022-10-18T02:37:30.790Z,9.98
2022-10-18T02:40:33.317Z,9.87
2022-10-18T02:43:35.599Z,10.93
2022-10-18T02:46:37.956Z,11.20
2022-10-18T02:49:40.308Z,11.63
2022-10-18T02:52:42.484Z,11.32
2022-10-18T02:55:44.712Z,10.43
2022-10-18T02:58:46.841Z,10.38
2022-10-18T03:01:49.112Z,11.43
2022-10-18T03:04:51.306Z,10.68
2022-10-18T03:07:53.478Z,11.05
2022-10-18T03:10:55.633Z,11.00
2022-10-18T03:13:57.768Z,11.30
2022-10-18T03:17:00.244Z,11.30
2022-10-18T03:20:02.470Z,10.48
2022-10-18T03:23:04.986Z,10.88
2022-10-18T03:26:07.265Z,11.40
2022-10-18T03:29:09.972Z,11.45
2022-10-18T03:32:12.195Z,12.40
2022-10-18T03:35:14.348Z,11.48
2022-10-18T03:38:16.537Z,12.50
2022-10-18T03:41:18.790Z,11.60
2022-10-18T03:44:20.968Z,11.70
2022-10-18T03:47:23.134Z,12.88
2022-10-18T03:50:25.381Z,12.98
2022-10-18T03:53:27.533Z,14.60
2022-10-18T03:56:29.720Z,16.07
2022-10-18T03:59:31.890Z,16.33
2022-10-18T04:02:34.340Z,15.93
2022-10-18T04:05:36.799Z,15.68
2022-10-18T04:08:38.944Z,14.38
2022-10-18T04:11:41.107Z,13.60
2022-10-18T04:14:43.490Z,13.00
2022-10-18T04:17:45.838Z,12.43
2022-10-18T04:20:48.104Z,12.05
2022-10-18T04:23:50.778Z,9.10
2022-10-18T04:26:53.075Z,11.47
2022-10-18T04:29:55.387Z,10.93
2022-10-18T04:32:57.576Z,11.02
2022-10-18T04:35:59.698Z,11.13
2022-10-18T04:39:01.910Z,10.30
2022-10-18T04:42:04.112Z,9.83
2022-10-18T04:45:06.540Z,10.55
2022-10-18T04:48:08.832Z,10.60
2022-10-18T04:51:11.136Z,10.30
2022-10-18T04:54:13.380Z,11.30
2022-10-18T04:57:15.611Z,12.67
2022-10-18T05:00:17.826Z,12.63
2022-10-18T05:03:20.330Z,13.13
2022-10-18T05:06:22.848Z,14.27
2022-10-18T05:09:25.220Z,15.60
2022-10-18T05:12:27.368Z,15.70
2022-10-18T05:15:29.579Z,15.02
2022-10-18T05:18:31.784Z,16.63
2022-10-18T05:21:34.082Z,15.25
2022-10-18T05:24:38.008Z,15.50
2022-10-18T05:27:40.182Z,14.90
2022-10-18T05:30:43.460Z,14.73
2022-10-18T05:33:45.677Z,15.50
2022-10-18T05:36:49.932Z,15.13
2022-10-18T05:39:53.702Z,14.77
2022-10-18T05:42:57.196Z,15.30
2022-10-18T05:46:05.943Z,14.43
2022-10-18T05:49:16.289Z,14.40
2022-10-18T05:52:32.108Z,14.07
2022-10-18T05:55:38.713Z,13.90
2022-10-18T05:58:56.394Z,14.10
2022-10-18T06:02:05.122Z,14.90
2022-10-18T06:05:09.394Z,14.68
2022-10-18T06:08:13.505Z,15.77
2022-10-18T06:11:19.060Z,14.90
2022-10-18T06:14:23.435Z,14.53
2022-10-18T06:17:29.001Z,14.63
2022-10-18T06:20:34.690Z,15.35
2022-10-18T06:23:36.998Z,16.08
2022-10-18T06:26:40.210Z,20.48
2022-10-18T06:29:45.011Z,21.10
2022-10-18T06:32:53.834Z,20.52
2022-10-18T06:35:59.021Z,20.20
2022-10-18T06:39:05.899Z,19.25
2022-10-18T06:42:08.097Z,19.48
2022-10-18T06:45:10.644Z,18.57
2022-10-18T06:48:13.015Z,18.45
2022-10-18T06:51:23.976Z,18.80
2022-10-18T06:54:33.193Z,18.13
2022-10-18T06:57:37.462Z,17.60
2022-10-18T07:00:40.050Z,18.83
2022-10-18T07:03:43.201Z,17.73
2022-10-18T07:06:45.784Z,17.75
2022-10-18T07:09:48.374Z,16.73
2022-10-18T07:12:53.441Z,17.25
2022-10-18T07:16:02.597Z,15.73
2022-10-18T07:19:07.396Z,15.43
2022-10-18T07:22:09.912Z,15.00
2022-10-18T07:25:12.274Z,15.15
2022-10-18T07:28:14.515Z,11.75
2022-10-18T07:31:19.590Z,10.70
2022-10-18T07:34:22.218Z,9.75
2022-10-18T07:37:27.847Z,10.38
2022-10-18T07:40:32.599Z,10.80
2022-10-18T07:43:35.043Z,11.25
2022-10-18T07:46:37.349Z,10.20
2022-10-18T07:49:41.095Z,9.68
2022-10-18T07:52:44.642Z,9.75
2022-10-18T07:55:50.170Z,10.13
2022-10-18T07:59:00.770Z,10.27
2022-10-18T08:02:24.907Z,10.03
2022-10-18T08:05:28.278Z,9.48
2022-10-18T08:08:31.109Z,9.02
2022-10-18T08:11:33.482Z,9.05
2022-10-18T08:14:35.808Z,8.75
2022-10-18T08:17:38.373Z,8.63
2022-10-18T08:20:45.113Z,8.30
2022-10-18T08:23:47.957Z,8.18
2022-10-18T08:26:50.710Z,7.50
2022-10-18T08:29:53.282Z,7.30
2022-10-18T08:32:55.609Z,8.10
2022-10-18T08:35:58.948Z,8.07
2022-10-18T08:39:03.211Z,8.00
2022-10-18T08:42:20.204Z,7.28
2022-10-18T08:45:40.833Z,7.22
2022-10-18T08:48:49.017Z,6.87
2022-10-18T08:51:52.864Z,7.25
2022-10-18T08:55:14.369Z,7.90
2022-10-18T08:58:27.654Z,7.43
2022-10-18T09:01:30.004Z,7.10
2022-10-18T09:04:51.400Z,7.13
2022-10-18T09:07:56.971Z,6.53
2022-10-18T09:11:03.921Z,6.82
2022-10-18T09:14:10.551Z,6.88
2022-10-18T09:17:25.132Z,6.63
2022-10-18T09:20:47.712Z,6.47
2022-10-18T09:23:55.018Z,6.93
2022-10-18T09:27:01.609Z,6.78
2022-10-18T09:30:24.643Z,6.25
2022-10-18T09:33:45.581Z,6.70
2022-10-18T09:36:52.374Z,7.23
2022-10-18T09:40:01.752Z,6.10
2022-10-18T09:43:16.069Z,6.28
2022-10-18T09:46:25.092Z,5.82
2022-10-18T09:49:34.465Z,6.13
2022-10-18T09:53:09.050Z,6.03
2022-10-18T09:56:35.601Z,5.95
2022-10-18T09:59:43.810Z,6.95
2022-10-18T10:02:46.630Z,6.90
2022-10-18T10:06:01.369Z,6.38
2022-10-18T10:09:17.028Z,5.70
2022-10-18T10:12:34.624Z,5.75
2022-10-18T10:15:42.422Z,5.50
2022-10-18T10:18:53.493Z,5.53
2022-10-18T10:21:59.551Z,4.90
2022-10-18T10:25:02.141Z,4.50
2022-10-18T10:28:13.275Z,5.15
2022-10-18T10:31:34.174Z,5.30
2022-10-18T10:34:38.825Z,4.95
2022-10-18T10:38:05.815Z,4.65
2022-10-18T10:41:20.499Z,4.70
2022-10-18T10:44:46.578Z,4.70
2022-10-18T10:48:16.564Z,4.60
2022-10-18T10:52:09.034Z,4.85
2022-10-18T10:55:35.444Z,4.45
2022-10-18T10:59:27.247Z,4.60
2022-10-18T11:02:32.258Z,4.85
2022-10-18T11:05:44.733Z,4.80
2022-10-18T11:08:48.792Z,4.63
2022-10-18T11:12:01.723Z,5.35
2022-10-18T11:15:11.145Z,5.00
2022-10-18T11:18:14.933Z,5.22
2022-10-18T11:21:25.497Z,5.07
2022-10-18T11:24:27.750Z,5.50
2022-10-18T11:28:08.826Z,5.40
2022-10-18T11:31:51.292Z,5.20
2022-10-18T11:35:36.103Z,4.88
2022-10-18T11:38:56.520Z,5.40
2022-10-18T11:42:21.575Z,5.03
2022-10-18T11:45:42.248Z,4.63
2022-10-18T11:49:09.493Z,4.63
2022-10-18T11:52:27.337Z,5.43
2022-10-18T11:55:36.063Z,5.13
2022-10-18T11:58:44.268Z,4.85
2022-10-18T12:01:54.548Z,4.93
2022-10-18T12:05:22.651Z,4.03
2022-10-18T12:08:30.501Z,4.57
2022-10-18T12:13:02.209Z,4.60
2022-10-18T12:16:05.374Z,4.57
2022-10-18T12:19:12.568Z,4.28
2022-10-18T12:22:20.252Z,4.27
2022-10-18T12:25:23.170Z,4.22
2022-10-18T12:28:37.907Z,4.78
2022-10-18T12:31:46.313Z,4.70
2022-10-18T12:34:51.143Z,4.07
2022-10-18T12:37:57.941Z,4.33
2022-10-18T12:41:12.429Z,4.00
2022-10-18T12:44:35.992Z,3.70
2022-10-18T12:47:38.473Z,3.60
2022-10-18T12:50:43.025Z,3.90
2022-10-18T12:53:47.926Z,3.60
2022-10-18T12:56:51.106Z,3.60
2022-10-18T12:59:53.871Z,3.50
2022-10-18T13:03:16.673Z,3.90
2022-10-18T13:06:19.517Z,3.40
2022-10-18T13:09:21.781Z,3.10
2022-10-18T13:12:24.159Z,3.00
2022-10-18T13:15:44.484Z,3.33
2022-10-18T13:18:53.554Z,3.33
2022-10-18T13:21:55.784Z,3.22
2022-10-18T13:25:02.246Z,3.33
2022-10-18T13:28:19.765Z,3.55
2022-10-18T13:31:26.099Z,3.42
2022-10-18T13:34:33.211Z,3.20
2022-10-18T13:37:35.596Z,3.10
2022-10-18T13:40:38.230Z,2.97
2022-10-18T13:43:51.544Z,3.40
2022-10-18T13:46:54.602Z,3.22
2022-10-18T13:49:59.443Z,3.50
2022-10-18T13:53:14.419Z,3.50
2022-10-18T13:56:42.414Z,2.93
2022-10-18T13:59:44.606Z,3.38
2022-10-18T14:03:04.051Z,3.20
2022-10-18T14:06:11.636Z,3.13
2022-10-18T14:09:32.870Z,3.25
2022-10-18T14:12:47.886Z,3.40
2022-10-18T14:15:52.845Z,3.30
2022-10-18T14:18:58.167Z,3.40
2022-10-18T14:22:18.685Z,3.25
2022-10-18T14:25:21.400Z,3.17
2022-10-18T14:28:31.644Z,3.43
2022-10-18T14:31:38.752Z,2.90
2022-10-18T14:34:43.585Z,3.13
2022-10-18T14:37:47.102Z,3.40
2022-10-18T14:40:49.428Z,3.00
2022-10-18T14:43:52.615Z,3.30
2022-10-18T14:47:01.857Z,3.30
2022-10-18T14:50:04.149Z,3.45
2022-10-18T14:53:07.681Z,3.60
2022-10-18T14:56:19.686Z,3.08
2022-10-18T14:59:24.537Z,3.90
2022-10-18T15:02:31.152Z,2.92
2022-10-18T15:05:33.826Z,3.30
2022-10-18T15:08:38.011Z,3.20
2022-10-18T15:11:41.506Z,3.53
2022-10-18T15:14:44.444Z,3.70
2022-10-18T15:17:47.131Z,3.85
2022-10-18T15:21:07.974Z,3.65
2022-10-18T15:24:30.184Z,4.05
2022-10-18T15:27:35.207Z,3.70
2022-10-18T15:30:39.257Z,3.80
2022-10-18T15:33:41.454Z,4.00
2022-10-18T15:39:46.138Z,4.40
2022-10-18T15:42:48.919Z,3.97
2022-10-18T15:46:01.647Z,4.10
2022-10-18T15:49:31.490Z,4.43
2022-10-18T15:52:43.376Z,5.07
2022-10-18T15:55:46.909Z,4.93
2022-10-18T15:58:51.012Z,4.13
2022-10-18T16:01:53.536Z,4.37
2022-10-18T16:04:55.927Z,5.47
2022-10-18T16:07:58.074Z,5.00
2022-10-18T16:11:00.689Z,5.30
2022-10-18T16:14:03.243Z,5.47
2022-10-18T16:17:06.272Z,5.97
2022-10-18T16:20:18.677Z,6.20
2022-10-18T16:23:22.722Z,5.80
2022-10-18T16:26:25.256Z,6.25
2022-10-18T16:29:32.021Z,6.05
2022-10-18T16:32:34.578Z,5.80
2022-10-18T16:35:37.324Z,6.07
2022-10-18T16:38:39.570Z,5.60
2022-10-18T16:41:41.790Z,7.95
2022-10-18T16:44:45.388Z,8.02
2022-10-18T16:47:47.729Z,7.47
2022-10-18T16:50:50.611Z,6.22
2022-10-18T16:53:56.287Z,6.88
2022-10-18T16:56:58.775Z,6.28
2022-10-18T17:00:01.051Z,7.35
2022-10-18T17:03:03.584Z,8.27
2022-10-18T17:06:05.846Z,7.80
2022-10-18T17:09:09.475Z,8.52
2022-10-18T17:12:11.611Z,7.72
2022-10-18T17:15:13.880Z,8.40
2022-10-18T17:18:17.251Z,9.73
2022-10-18T17:21:19.449Z,10.20
2022-10-18T17:24:21.877Z,10.52
2022-10-18T17:27:24.338Z,10.25
2022-10-18T17:30:26.568Z,11.48
2022-10-18T17:33:28.738Z,10.50
2022-10-18T17:36:31.524Z,10.15
2022-10-18T17:39:34.115Z,11.80
2022-10-18T17:42:36.724Z,12.70
2022-10-18T17:45:45.708Z,13.02
2022-10-18T17:48:47.869Z,13.47
2022-10-18T17:51:50.195Z,13.48
2022-10-18T17:54:52.421Z,14.68
2022-10-18T17:57:54.599Z,14.00
2022-10-18T18:00:56.817Z,16.65
2022-10-18T18:04:00.002Z,16.80
2022-10-18T18:07:04.676Z,16.02
2022-10-18T18:10:06.996Z,16.10
2022-10-18T18:13:09.225Z,17.35
2022-10-18T18:16:11.793Z,16.50
2022-10-18T18:19:14.386Z,16.40
2022-10-18T18:22:16.603Z,17.15
2022-10-18T18:25:18.889Z,17.70
2022-10-18T18:28:21.176Z,17.77
2022-10-18T18:31:24.403Z,16.52
2022-10-18T18:34:26.875Z,15.87
2022-10-18T18:37:29.147Z,17.02
2022-10-18T18:40:31.311Z,16.48
2022-10-18T18:43:33.651Z,16.63
2022-10-18T18:46:38.895Z,16.40
2022-10-18T18:49:41.207Z,17.23
2022-10-18T18:52:43.595Z,16.60
2022-10-18T18:55:46.308Z,16.00
2022-10-18T18:58:49.088Z,16.75
2022-10-18T19:01:51.656Z,16.65
2022-10-18T19:04:55.184Z,16.23
2022-10-18T19:07:58.812Z,16.80
2022-10-18T19:11:00.966Z,17.95
2022-10-18T19:14:03.961Z,16.55
2022-10-18T19:17:07.911Z,17.08
2022-10-18T19:20:12.343Z,16.23
2022-10-18T19:23:14.549Z,17.23
2022-10-18T19:26:23.139Z,17.92
2022-10-18T19:29:29.569Z,16.95
2022-10-18T19:32:32.197Z,17.17
2022-10-18T19:35:34.456Z,16.17
2022-10-18T19:38:36.700Z,16.13
2022-10-18T19:41:38.910Z,16.33
2022-10-18T19:44:41.886Z,17.35
2022-10-18T19:47:44.042Z,17.83
2022-10-18T19:50:46.237Z,17.03
2022-10-18T19:53:48.374Z,17.83
2022-10-18T19:56:50.678Z,18.80
2022-10-18T19:59:53.275Z,20.08
2022-10-18T20:02:55.980Z,21.38
2022-10-18T20:05:59.138Z,19.10
2022-10-18T20:09:01.681Z,19.45
2022-10-18T20:12:04.230Z,19.35
2022-10-18T20:15:08.823Z,20.30
2022-10-18T20:18:10.994Z,18.80
2022-10-18T20:21:14.516Z,19.20
2022-10-18T20:24:16.662Z,17.17
2022-10-18T20:27:19.258Z,19.15
2022-10-18T20:30:21.518Z,19.70
2022-10-18T20:33:23.677Z,20.08
2022-10-18T20:36:26.813Z,20.63
2022-10-18T20:39:28.995Z,19.60
2022-10-18T20:42:31.216Z,20.00
2022-10-18T20:45:33.378Z,21.38
2022-10-18T20:48:35.861Z,19.30
2022-10-18T20:51:38.012Z,18.37
2022-10-18T20:54:40.174Z,19.20
2022-10-18T20:57:42.873Z,18.63
2022-10-18T21:00:45.454Z,19.33
2022-10-18T21:03:48.708Z,17.90
2022-10-18T21:06:50.969Z,18.30
2022-10-18T21:09:53.170Z,17.08
2022-10-18T21:12:55.514Z,17.75
2022-10-18T21:15:58.096Z,17.65
2022-10-18T21:19:04.495Z,16.50
2022-10-18T21:22:06.673Z,16.40
2022-10-18T21:25:10.283Z,15.55
2022-10-18T21:28:12.736Z,16.40
2022-10-18T21:31:17.008Z,14.63
2022-10-18T21:34:19.289Z,14.32
2022-10-18T21:37:21.813Z,14.77
2022-10-18T21:40:24.285Z,13.88
2022-10-18T21:43:26.966Z,12.93
2022-10-18T21:46:29.142Z,14.35
2022-10-18T21:49:35.123Z,13.55
2022-10-18T21:52:38.161Z,12.80
2022-10-18T21:55:40.306Z,13.18
2022-10-18T21:58:43.217Z,12.40
2022-10-18T22:01:46.063Z,13.00
2022-10-18T22:04:49.748Z,13.18
2022-10-18T22:07:51.867Z,12.10
2022-10-18T22:10:54.391Z,13.68
2022-10-18T22:13:57.021Z,12.73
2022-10-18T22:16:59.178Z,11.90
2022-10-18T22:20:01.331Z,13.25
2022-10-18T22:23:03.548Z,12.30
2022-10-18T22:26:07.880Z,13.63
2022-10-18T22:29:12.461Z,14.07
2022-10-18T22:32:14.578Z,13.82
2022-10-18T22:35:16.846Z,13.15
2022-10-18T22:38:19.110Z,13.03
2022-10-18T22:41:21.622Z,12.60
2022-10-18T22:44:24.210Z,12.73
2022-10-18T22:47:26.458Z,11.75
2022-10-18T22:50:28.590Z,12.27
2022-10-18T22:53:31.584Z,12.13
2022-10-18T22:56:33.769Z,13.23
2022-10-18T22:59:35.900Z,12.85
2022-10-18T23:02:38.066Z,13.00
2022-10-18T23:05:41.248Z,13.88
2022-10-18T23:08:43.368Z,13.00
2022-10-18T23:11:47.568Z,13.20
2022-10-18T23:14:49.767Z,12.75
2022-10-18T23:17:55.222Z,13.05
2022-10-18T23:21:01.819Z,13.23
2022-10-18T23:24:04.335Z,13.57
2022-10-18T23:27:06.518Z,13.88
2022-10-18T23:30:08.997Z,14.30
2022-10-18T23:33:11.113Z,13.70
2022-10-18T23:36:13.616Z,13.98
2022-10-18T23:39:15.728Z,13.73
2022-10-18T23:42:17.960Z,12.85
2022-10-18T23:45:20.156Z,13.30
2022-10-18T23:48:22.613Z,14.00
2022-10-18T23:51:24.775Z,14.90
2022-10-18T23:54:26.955Z,14.73
2022-10-18T23:57:29.268Z,14.18
